KEKO

Elko Regional Airport

Elko, Nevada, USA
METAR KEKO 160556Z AUTO 25003KT 10SM CLR 18/14 A3014 RMK AO2 SLP149 60026 T01780139 10328 20178 56011
Observed Flight Rules
Aug-16 @ 05:56 UTC (20 minutes ago) Visual Flight Rules
Wind Visibility Clouds
250° at 3 knots 10 miles
  • Clear skies
Temperatures Readings
Current 18°C / 64°F
Dewpoint 14°C / 57°F
Humidity 78%
Altimeter 30.14" Hg
Pressure 1014.9 hPa
Elevation 1547
METAR KEKO 160556Z AUTO 25003KT 10SM CLR 18/14 A3014 RMK AO2 SLP149 60026 T01780139 10328 20178 56011
Observed Flight Rules
Aug-16 @ 05:56 UTC
(20 minutes ago)
VFR
Wind Visibility
250° at 3 knots 10 miles
Clouds
  • Clear skies
Temperature Dewpoint
18°C / 64°F 14°C / 57°F
Humidity Altimeter Pressure
78% 30.14" Hg 1014.9 hPa